sensor_id;sensor_type;location;lat;lon;timestamp;P1;P2;P0
77699;PMS5003;66867;42.658;23.320;2023-09-12T00:00:00;15;15;
77699;PMS5003;66867;42.658;23.320;2023-09-12T00:01:04;15;15;
77699;PMS5003;66867;42.658;23.320;2023-09-12T00:02:00;13;13;
77699;PMS5003;66867;42.658;23.320;2023-09-12T00:03:00;14;14;
77699;PMS5003;66867;42.658;23.320;2023-09-12T00:04:00;14;14;
77699;PMS5003;66867;42.658;23.320;2023-09-12T00:05:00;13;13;
77699;PMS5003;66867;42.658;23.320;2023-09-12T00:06:01;16;15;
77699;PMS5003;66867;42.658;23.320;2023-09-12T00:07:00;13;13;
77699;PMS5003;66867;42.658;23.320;2023-09-12T00:08:00;14;13;
77699;PMS5003;66867;42.658;23.320;2023-09-12T00:09:00;14;13;
77699;PMS5003;66867;42.658;23.320;2023-09-12T00:10:00;15;15;
77699;PMS5003;66867;42.658;23.320;2023-09-12T00:12:00;16;16;
77699;PMS5003;66867;42.658;23.320;2023-09-12T00:13:00;12;12;
77699;PMS5003;66867;42.658;23.320;2023-09-12T00:14:00;13;13;
77699;PMS5003;66867;42.658;23.320;2023-09-12T00:15:00;15;15;
77699;PMS5003;66867;42.658;23.320;2023-09-12T00:16:00;14;14;
77699;PMS5003;66867;42.658;23.320;2023-09-12T00:17:00;12;12;
77699;PMS5003;66867;42.658;23.320;2023-09-12T00:18:00;14;14;
77699;PMS5003;66867;42.658;23.320;2023-09-12T00:19:00;12;12;
77699;PMS5003;66867;42.658;23.320;2023-09-12T00:20:00;13;13;
77699;PMS5003;66867;42.658;23.320;2023-09-12T00:21:00;15;14;
77699;PMS5003;66867;42.658;23.320;2023-09-12T00:22:00;16;15;
77699;PMS5003;66867;42.658;23.320;2023-09-12T00:23:00;13;13;
77699;PMS5003;66867;42.658;23.320;2023-09-12T00:24:00;15;14;
77699;PMS5003;66867;42.658;23.320;2023-09-12T00:25:00;14;13;
77699;PMS5003;66867;42.658;23.320;2023-09-12T00:26:00;14;12;
77699;PMS5003;66867;42.658;23.320;2023-09-12T00:27:00;17;17;
77699;PMS5003;66867;42.658;23.320;2023-09-12T00:28:00;16;16;
77699;PMS5003;66867;42.658;23.320;2023-09-12T00:29:00;16;15;
77699;PMS5003;66867;42.658;23.320;2023-09-12T00:30:00;14;14;
77699;PMS5003;66867;42.658;23.320;2023-09-12T00:31:00;17;15;
77699;PMS5003;66867;42.658;23.320;2023-09-12T00:32:00;14;12;
77699;PMS5003;66867;42.658;23.320;2023-09-12T00:33:00;13;13;
77699;PMS5003;66867;42.658;23.320;2023-09-12T00:34:00;12;12;
77699;PMS5003;66867;42.658;23.320;2023-09-12T00:35:00;16;15;
77699;PMS5003;66867;42.658;23.320;2023-09-12T00:36:00;12;12;
77699;PMS5003;66867;42.658;23.320;2023-09-12T00:37:00;16;16;
77699;PMS5003;66867;42.658;23.320;2023-09-12T00:38:00;14;14;
77699;PMS5003;66867;42.658;23.320;2023-09-12T00:39:00;16;15;
77699;PMS5003;66867;42.658;23.320;2023-09-12T00:40:00;14;12;
77699;PMS5003;66867;42.658;23.320;2023-09-12T00:41:00;15;14;
77699;PMS5003;66867;42.658;23.320;2023-09-12T00:42:00;13;12;
77699;PMS5003;66867;42.658;23.320;2023-09-12T00:43:00;15;14;
77699;PMS5003;66867;42.658;23.320;2023-09-12T00:44:00;13;13;
77699;PMS5003;66867;42.658;23.320;2023-09-12T00:45:00;15;14;
77699;PMS5003;66867;42.658;23.320;2023-09-12T00:46:00;14;14;
77699;PMS5003;66867;42.658;23.320;2023-09-12T00:47:01;14;14;
77699;PMS5003;66867;42.658;23.320;2023-09-12T00:48:01;16;16;
77699;PMS5003;66867;42.658;23.320;2023-09-12T00:49:01;15;15;
77699;PMS5003;66867;42.658;23.320;2023-09-12T00:50:00;12;12;
77699;PMS5003;66867;42.658;23.320;2023-09-12T00:51:00;13;13;
77699;PMS5003;66867;42.658;23.320;2023-09-12T00:52:01;15;15;
77699;PMS5003;66867;42.658;23.320;2023-09-12T00:53:01;15;14;
77699;PMS5003;66867;42.658;23.320;2023-09-12T00:54:00;16;14;
77699;PMS5003;66867;42.658;23.320;2023-09-12T00:55:00;13;12;
77699;PMS5003;66867;42.658;23.320;2023-09-12T00:56:01;13;13;
77699;PMS5003;66867;42.658;23.320;2023-09-12T00:57:00;14;13;
77699;PMS5003;66867;42.658;23.320;2023-09-12T00:58:01;15;14;
77699;PMS5003;66867;42.658;23.320;2023-09-12T00:59:00;13;13;
77699;PMS5003;66867;42.658;23.320;2023-09-12T01:00:04;14;14;
77699;PMS5003;66867;42.658;23.320;2023-09-12T01:01:00;14;14;
77699;PMS5003;66867;42.658;23.320;2023-09-12T01:02:00;14;12;
77699;PMS5003;66867;42.658;23.320;2023-09-12T01:03:00;14;14;
77699;PMS5003;66867;42.658;23.320;2023-09-12T01:04:00;14;14;
77699;PMS5003;66867;42.658;23.320;2023-09-12T01:05:00;14;13;
77699;PMS5003;66867;42.658;23.320;2023-09-12T01:06:00;14;13;
77699;PMS5003;66867;42.658;23.320;2023-09-12T01:07:00;15;14;
77699;PMS5003;66867;42.658;23.320;2023-09-12T01:08:00;14;14;
77699;PMS5003;66867;42.658;23.320;2023-09-12T01:09:00;13;13;
77699;PMS5003;66867;42.658;23.320;2023-09-12T01:10:00;15;14;
77699;PMS5003;66867;42.658;23.320;2023-09-12T01:11:00;14;14;
77699;PMS5003;66867;42.658;23.320;2023-09-12T01:12:00;15;15;
77699;PMS5003;66867;42.658;23.320;2023-09-12T01:13:00;13;13;
77699;PMS5003;66867;42.658;23.320;2023-09-12T01:14:00;13;12;
77699;PMS5003;66867;42.658;23.320;2023-09-12T01:15:00;14;14;
77699;PMS5003;66867;42.658;23.320;2023-09-12T01:16:00;13;13;
77699;PMS5003;66867;42.658;23.320;2023-09-12T01:17:00;12;12;
77699;PMS5003;66867;42.658;23.320;2023-09-12T01:18:00;14;14;
77699;PMS5003;66867;42.658;23.320;2023-09-12T01:19:00;15;13;
77699;PMS5003;66867;42.658;23.320;2023-09-12T01:20:01;12;12;
77699;PMS5003;66867;42.658;23.320;2023-09-12T01:25:07;16;16;
77699;PMS5003;66867;42.658;23.320;2023-09-12T01:26:05;13;12;
77699;PMS5003;66867;42.658;23.320;2023-09-12T01:27:15;13;13;
77699;PMS5003;66867;42.658;23.320;2023-09-12T01:28:02;12;12;
77699;PMS5003;66867;42.658;23.320;2023-09-12T01:29:00;13;12;
77699;PMS5003;66867;42.658;23.320;2023-09-12T01:30:02;16;14;
77699;PMS5003;66867;42.658;23.320;2023-09-12T01:31:01;13;13;
77699;PMS5003;66867;42.658;23.320;2023-09-12T01:32:01;12;12;
77699;PMS5003;66867;42.658;23.320;2023-09-12T01:33:00;13;13;
77699;PMS5003;66867;42.658;23.320;2023-09-12T01:34:10;13;12;
77699;PMS5003;66867;42.658;23.320;2023-09-12T01:35:00;15;14;
77699;PMS5003;66867;42.658;23.320;2023-09-12T01:36:00;14;14;
77699;PMS5003;66867;42.658;23.320;2023-09-12T01:37:00;15;13;
77699;PMS5003;66867;42.658;23.320;2023-09-12T01:38:00;14;13;
77699;PMS5003;66867;42.658;23.320;2023-09-12T01:39:00;14;13;
77699;PMS5003;66867;42.658;23.320;2023-09-12T01:40:01;12;12;
77699;PMS5003;66867;42.658;23.320;2023-09-12T01:41:00;14;14;
77699;PMS5003;66867;42.658;23.320;2023-09-12T01:42:01;12;11;
77699;PMS5003;66867;42.658;23.320;2023-09-12T01:43:00;13;12;
77699;PMS5003;66867;42.658;23.320;2023-09-12T01:44:01;16;15;
77699;PMS5003;66867;42.658;23.320;2023-09-12T01:45:01;14;12;
77699;PMS5003;66867;42.658;23.320;2023-09-12T01:46:00;13;13;
77699;PMS5003;66867;42.658;23.320;2023-09-12T01:47:03;15;14;
77699;PMS5003;66867;42.658;23.320;2023-09-12T01:48:00;13;13;
77699;PMS5003;66867;42.658;23.320;2023-09-12T01:49:00;14;13;
77699;PMS5003;66867;42.658;23.320;2023-09-12T01:50:00;17;16;
77699;PMS5003;66867;42.658;23.320;2023-09-12T01:51:01;14;13;
77699;PMS5003;66867;42.658;23.320;2023-09-12T01:52:00;14;13;
77699;PMS5003;66867;42.658;23.320;2023-09-12T01:53:00;13;12;
77699;PMS5003;66867;42.658;23.320;2023-09-12T01:54:00;12;11;
77699;PMS5003;66867;42.658;23.320;2023-09-12T01:55:01;13;13;
77699;PMS5003;66867;42.658;23.320;2023-09-12T01:56:00;13;13;
77699;PMS5003;66867;42.658;23.320;2023-09-12T01:57:01;13;13;
77699;PMS5003;66867;42.658;23.320;2023-09-12T01:58:01;11;11;
77699;PMS5003;66867;42.658;23.320;2023-09-12T01:59:00;12;12;
77699;PMS5003;66867;42.658;23.320;2023-09-12T02:00:00;12;12;
77699;PMS5003;66867;42.658;23.320;2023-09-12T02:01:00;12;11;
77699;PMS5003;66867;42.658;23.320;2023-09-12T02:02:00;15;13;
77699;PMS5003;66867;42.658;23.320;2023-09-12T02:03:01;15;15;
77699;PMS5003;66867;42.658;23.320;2023-09-12T02:04:00;13;13;
77699;PMS5003;66867;42.658;23.320;2023-09-12T02:05:12;13;12;
77699;PMS5003;66867;42.658;23.320;2023-09-12T02:06:00;13;12;
77699;PMS5003;66867;42.658;23.320;2023-09-12T02:07:00;15;14;
77699;PMS5003;66867;42.658;23.320;2023-09-12T02:08:00;14;14;
77699;PMS5003;66867;42.658;23.320;2023-09-12T02:09:00;14;13;
77699;PMS5003;66867;42.658;23.320;2023-09-12T02:10:00;13;12;
77699;PMS5003;66867;42.658;23.320;2023-09-12T02:11:00;13;12;
77699;PMS5003;66867;42.658;23.320;2023-09-12T02:12:00;13;13;
77699;PMS5003;66867;42.658;23.320;2023-09-12T02:13:00;15;13;
77699;PMS5003;66867;42.658;23.320;2023-09-12T02:14:00;13;13;
77699;PMS5003;66867;42.658;23.320;2023-09-12T02:15:00;15;13;
77699;PMS5003;66867;42.658;23.320;2023-09-12T02:16:00;16;14;
77699;PMS5003;66867;42.658;23.320;2023-09-12T02:17:00;14;13;
77699;PMS5003;66867;42.658;23.320;2023-09-12T02:18:00;12;12;
77699;PMS5003;66867;42.658;23.320;2023-09-12T02:19:00;14;14;
77699;PMS5003;66867;42.658;23.320;2023-09-12T02:20:00;13;13;
77699;PMS5003;66867;42.658;23.320;2023-09-12T02:21:00;13;12;
77699;PMS5003;66867;42.658;23.320;2023-09-12T02:22:00;13;13;
77699;PMS5003;66867;42.658;23.320;2023-09-12T02:23:00;12;12;
77699;PMS5003;66867;42.658;23.320;2023-09-12T02:24:00;13;13;
77699;PMS5003;66867;42.658;23.320;2023-09-12T02:25:00;13;12;
77699;PMS5003;66867;42.658;23.320;2023-09-12T02:26:00;17;16;
77699;PMS5003;66867;42.658;23.320;2023-09-12T02:27:00;10;10;
77699;PMS5003;66867;42.658;23.320;2023-09-12T02:28:00;15;14;
77699;PMS5003;66867;42.658;23.320;2023-09-12T02:29:00;14;13;
77699;PMS5003;66867;42.658;23.320;2023-09-12T02:30:00;13;13;
77699;PMS5003;66867;42.658;23.320;2023-09-12T02:31:00;13;13;
77699;PMS5003;66867;42.658;23.320;2023-09-12T02:32:00;13;13;
77699;PMS5003;66867;42.658;23.320;2023-09-12T02:33:00;16;16;
77699;PMS5003;66867;42.658;23.320;2023-09-12T02:34:00;16;14;
77699;PMS5003;66867;42.658;23.320;2023-09-12T02:35:00;12;12;
77699;PMS5003;66867;42.658;23.320;2023-09-12T02:36:00;14;14;
77699;PMS5003;66867;42.658;23.320;2023-09-12T02:37:00;14;14;
77699;PMS5003;66867;42.658;23.320;2023-09-12T02:39:00;12;12;
77699;PMS5003;66867;42.658;23.320;2023-09-12T02:40:00;15;14;
77699;PMS5003;66867;42.658;23.320;2023-09-12T02:41:00;15;14;
77699;PMS5003;66867;42.658;23.320;2023-09-12T02:42:00;14;14;
77699;PMS5003;66867;42.658;23.320;2023-09-12T02:43:00;12;12;
77699;PMS5003;66867;42.658;23.320;2023-09-12T02:44:00;13;13;
77699;PMS5003;66867;42.658;23.320;2023-09-12T02:45:00;14;13;
77699;PMS5003;66867;42.658;23.320;2023-09-12T02:46:00;12;12;
77699;PMS5003;66867;42.658;23.320;2023-09-12T02:47:00;13;13;
77699;PMS5003;66867;42.658;23.320;2023-09-12T02:48:00;12;11;
77699;PMS5003;66867;42.658;23.320;2023-09-12T02:49:00;12;12;
77699;PMS5003;66867;42.658;23.320;2023-09-12T02:50:00;12;12;
77699;PMS5003;66867;42.658;23.320;2023-09-12T02:51:00;11;11;
77699;PMS5003;66867;42.658;23.320;2023-09-12T02:52:00;14;13;
77699;PMS5003;66867;42.658;23.320;2023-09-12T02:53:00;17;15;
77699;PMS5003;66867;42.658;23.320;2023-09-12T02:54:00;12;12;
77699;PMS5003;66867;42.658;23.320;2023-09-12T02:55:00;13;13;
77699;PMS5003;66867;42.658;23.320;2023-09-12T02:56:00;15;15;
77699;PMS5003;66867;42.658;23.320;2023-09-12T02:57:00;13;13;
77699;PMS5003;66867;42.658;23.320;2023-09-12T02:58:00;14;13;
77699;PMS5003;66867;42.658;23.320;2023-09-12T02:59:00;15;14;
77699;PMS5003;66867;42.658;23.320;2023-09-12T03:00:00;17;16;
77699;PMS5003;66867;42.658;23.320;2023-09-12T03:01:00;15;13;
77699;PMS5003;66867;42.658;23.320;2023-09-12T03:02:00;15;15;
77699;PMS5003;66867;42.658;23.320;2023-09-12T03:03:00;12;12;
77699;PMS5003;66867;42.658;23.320;2023-09-12T03:04:00;13;13;
77699;PMS5003;66867;42.658;23.320;2023-09-12T03:05:00;14;14;
77699;PMS5003;66867;42.658;23.320;2023-09-12T03:06:01;16;12;
77699;PMS5003;66867;42.658;23.320;2023-09-12T03:07:00;12;12;
77699;PMS5003;66867;42.658;23.320;2023-09-12T03:08:00;14;14;
77699;PMS5003;66867;42.658;23.320;2023-09-12T03:09:00;11;11;
77699;PMS5003;66867;42.658;23.320;2023-09-12T03:10:00;11;11;
77699;PMS5003;66867;42.658;23.320;2023-09-12T03:11:00;14;14;
77699;PMS5003;66867;42.658;23.320;2023-09-12T03:12:01;15;15;
77699;PMS5003;66867;42.658;23.320;2023-09-12T03:13:00;16;15;
77699;PMS5003;66867;42.658;23.320;2023-09-12T03:14:00;14;13;
77699;PMS5003;66867;42.658;23.320;2023-09-12T03:15:00;15;13;
77699;PMS5003;66867;42.658;23.320;2023-09-12T03:16:00;13;13;
77699;PMS5003;66867;42.658;23.320;2023-09-12T03:17:00;12;12;
77699;PMS5003;66867;42.658;23.320;2023-09-12T03:18:00;15;15;
77699;PMS5003;66867;42.658;23.320;2023-09-12T03:19:00;14;14;
77699;PMS5003;66867;42.658;23.320;2023-09-12T03:20:00;18;18;
77699;PMS5003;66867;42.658;23.320;2023-09-12T03:21:00;17;15;
77699;PMS5003;66867;42.658;23.320;2023-09-12T03:22:00;16;15;
77699;PMS5003;66867;42.658;23.320;2023-09-12T03:23:00;15;15;
77699;PMS5003;66867;42.658;23.320;2023-09-12T03:24:00;19;18;
77699;PMS5003;66867;42.658;23.320;2023-09-12T03:25:00;15;15;
77699;PMS5003;66867;42.658;23.320;2023-09-12T03:26:02;17;17;
77699;PMS5003;66867;42.658;23.320;2023-09-12T03:27:00;19;15;
77699;PMS5003;66867;42.658;23.320;2023-09-12T03:28:00;14;14;
77699;PMS5003;66867;42.658;23.320;2023-09-12T03:29:00;14;13;
77699;PMS5003;66867;42.658;23.320;2023-09-12T03:30:00;12;12;
77699;PMS5003;66867;42.658;23.320;2023-09-12T03:31:09;16;15;
77699;PMS5003;66867;42.658;23.320;2023-09-12T03:32:00;13;13;
77699;PMS5003;66867;42.658;23.320;2023-09-12T03:33:00;13;13;
77699;PMS5003;66867;42.658;23.320;2023-09-12T03:34:00;15;14;
77699;PMS5003;66867;42.658;23.320;2023-09-12T03:35:00;14;12;
77699;PMS5003;66867;42.658;23.320;2023-09-12T03:36:00;13;13;
77699;PMS5003;66867;42.658;23.320;2023-09-12T03:37:00;13;13;
77699;PMS5003;66867;42.658;23.320;2023-09-12T03:38:00;14;14;
77699;PMS5003;66867;42.658;23.320;2023-09-12T03:39:00;15;13;
77699;PMS5003;66867;42.658;23.320;2023-09-12T03:40:00;15;15;
77699;PMS5003;66867;42.658;23.320;2023-09-12T03:41:01;13;12;
77699;PMS5003;66867;42.658;23.320;2023-09-12T03:42:00;14;14;
77699;PMS5003;66867;42.658;23.320;2023-09-12T03:43:00;14;14;
77699;PMS5003;66867;42.658;23.320;2023-09-12T03:44:00;17;16;
77699;PMS5003;66867;42.658;23.320;2023-09-12T03:45:00;16;15;
77699;PMS5003;66867;42.658;23.320;2023-09-12T03:46:00;17;17;
77699;PMS5003;66867;42.658;23.320;2023-09-12T03:47:00;18;17;
77699;PMS5003;66867;42.658;23.320;2023-09-12T03:48:00;17;17;
77699;PMS5003;66867;42.658;23.320;2023-09-12T03:49:00;16;16;
77699;PMS5003;66867;42.658;23.320;2023-09-12T03:50:00;15;14;
77699;PMS5003;66867;42.658;23.320;2023-09-12T03:51:00;20;19;
77699;PMS5003;66867;42.658;23.320;2023-09-12T03:52:00;18;17;
77699;PMS5003;66867;42.658;23.320;2023-09-12T03:53:00;15;15;
77699;PMS5003;66867;42.658;23.320;2023-09-12T03:54:00;15;14;
77699;PMS5003;66867;42.658;23.320;2023-09-12T03:55:00;21;20;
77699;PMS5003;66867;42.658;23.320;2023-09-12T03:56:00;27;25;
77699;PMS5003;66867;42.658;23.320;2023-09-12T03:57:00;20;19;
77699;PMS5003;66867;42.658;23.320;2023-09-12T03:58:00;25;24;
77699;PMS5003;66867;42.658;23.320;2023-09-12T03:59:00;21;19;
77699;PMS5003;66867;42.658;23.320;2023-09-12T04:00:00;14;14;
77699;PMS5003;66867;42.658;23.320;2023-09-12T04:01:00;18;17;
77699;PMS5003;66867;42.658;23.320;2023-09-12T04:02:02;14;13;
77699;PMS5003;66867;42.658;23.320;2023-09-12T04:03:00;19;18;
77699;PMS5003;66867;42.658;23.320;2023-09-12T04:04:00;17;17;
77699;PMS5003;66867;42.658;23.320;2023-09-12T04:05:00;17;17;
77699;PMS5003;66867;42.658;23.320;2023-09-12T04:06:00;19;19;
77699;PMS5003;66867;42.658;23.320;2023-09-12T04:07:00;18;18;
77699;PMS5003;66867;42.658;23.320;2023-09-12T04:08:00;15;14;
77699;PMS5003;66867;42.658;23.320;2023-09-12T04:09:00;16;16;
77699;PMS5003;66867;42.658;23.320;2023-09-12T04:10:00;15;15;
77699;PMS5003;66867;42.658;23.320;2023-09-12T04:11:00;17;16;
77699;PMS5003;66867;42.658;23.320;2023-09-12T04:12:00;15;14;
77699;PMS5003;66867;42.658;23.320;2023-09-12T04:13:00;16;16;
77699;PMS5003;66867;42.658;23.320;2023-09-12T04:14:00;16;16;
77699;PMS5003;66867;42.658;23.320;2023-09-12T04:15:00;14;14;
77699;PMS5003;66867;42.658;23.320;2023-09-12T04:16:00;16;16;
77699;PMS5003;66867;42.658;23.320;2023-09-12T04:17:00;20;19;
77699;PMS5003;66867;42.658;23.320;2023-09-12T04:18:00;18;17;
77699;PMS5003;66867;42.658;23.320;2023-09-12T04:19:00;17;17;
77699;PMS5003;66867;42.658;23.320;2023-09-12T04:20:00;18;17;
77699;PMS5003;66867;42.658;23.320;2023-09-12T04:21:00;19;17;
77699;PMS5003;66867;42.658;23.320;2023-09-12T04:22:00;18;18;
77699;PMS5003;66867;42.658;23.320;2023-09-12T04:23:01;19;18;
77699;PMS5003;66867;42.658;23.320;2023-09-12T04:24:00;16;15;
77699;PMS5003;66867;42.658;23.320;2023-09-12T04:25:00;17;16;
77699;PMS5003;66867;42.658;23.320;2023-09-12T04:26:00;17;17;
77699;PMS5003;66867;42.658;23.320;2023-09-12T04:27:00;15;15;
77699;PMS5003;66867;42.658;23.320;2023-09-12T04:28:00;18;18;
77699;PMS5003;66867;42.658;23.320;2023-09-12T04:29:00;17;17;
77699;PMS5003;66867;42.658;23.320;2023-09-12T04:30:00;17;17;
77699;PMS5003;66867;42.658;23.320;2023-09-12T04:31:01;18;17;
77699;PMS5003;66867;42.658;23.320;2023-09-12T04:32:03;19;18;
77699;PMS5003;66867;42.658;23.320;2023-09-12T04:33:00;18;18;
77699;PMS5003;66867;42.658;23.320;2023-09-12T04:34:00;17;17;
77699;PMS5003;66867;42.658;23.320;2023-09-12T04:35:00;17;16;
77699;PMS5003;66867;42.658;23.320;2023-09-12T04:36:00;21;18;
77699;PMS5003;66867;42.658;23.320;2023-09-12T04:37:00;19;17;
77699;PMS5003;66867;42.658;23.320;2023-09-12T04:38:00;16;16;
77699;PMS5003;66867;42.658;23.320;2023-09-12T04:39:00;18;16;
77699;PMS5003;66867;42.658;23.320;2023-09-12T04:40:00;18;16;
77699;PMS5003;66867;42.658;23.320;2023-09-12T04:41:02;16;16;
77699;PMS5003;66867;42.658;23.320;2023-09-12T04:42:00;17;17;
77699;PMS5003;66867;42.658;23.320;2023-09-12T04:43:00;17;17;
77699;PMS5003;66867;42.658;23.320;2023-09-12T04:44:00;18;18;
77699;PMS5003;66867;42.658;23.320;2023-09-12T04:45:00;20;19;
77699;PMS5003;66867;42.658;23.320;2023-09-12T04:46:00;20;19;
77699;PMS5003;66867;42.658;23.320;2023-09-12T05:02:00;21;21;
77699;PMS5003;66867;42.658;23.320;2023-09-12T05:03:01;23;21;
77699;PMS5003;66867;42.658;23.320;2023-09-12T05:04:00;20;19;
77699;PMS5003;66867;42.658;23.320;2023-09-12T05:05:00;20;19;
77699;PMS5003;66867;42.658;23.320;2023-09-12T05:06:00;22;21;
77699;PMS5003;66867;42.658;23.320;2023-09-12T05:07:00;21;21;
77699;PMS5003;66867;42.658;23.320;2023-09-12T05:08:00;19;19;
77699;PMS5003;66867;42.658;23.320;2023-09-12T05:09:00;21;20;
77699;PMS5003;66867;42.658;23.320;2023-09-12T05:10:00;20;19;
77699;PMS5003;66867;42.658;23.320;2023-09-12T05:11:00;23;23;
77699;PMS5003;66867;42.658;23.320;2023-09-12T05:12:00;18;18;
77699;PMS5003;66867;42.658;23.320;2023-09-12T05:13:00;19;18;
77699;PMS5003;66867;42.658;23.320;2023-09-12T05:14:00;18;17;
77699;PMS5003;66867;42.658;23.320;2023-09-12T05:15:00;19;18;
77699;PMS5003;66867;42.658;23.320;2023-09-12T05:16:00;22;20;
77699;PMS5003;66867;42.658;23.320;2023-09-12T05:17:00;23;23;
77699;PMS5003;66867;42.658;23.320;2023-09-12T05:18:00;28;26;
77699;PMS5003;66867;42.658;23.320;2023-09-12T05:19:00;26;25;
77699;PMS5003;66867;42.658;23.320;2023-09-12T05:20:00;26;23;
77699;PMS5003;66867;42.658;23.320;2023-09-12T05:21:00;20;20;
77699;PMS5003;66867;42.658;23.320;2023-09-12T05:22:00;23;23;
77699;PMS5003;66867;42.658;23.320;2023-09-12T05:23:00;22;20;
77699;PMS5003;66867;42.658;23.320;2023-09-12T05:24:00;22;20;
77699;PMS5003;66867;42.658;23.320;2023-09-12T05:25:00;24;22;
77699;PMS5003;66867;42.658;23.320;2023-09-12T05:26:00;20;20;
77699;PMS5003;66867;42.658;23.320;2023-09-12T05:27:00;23;22;
77699;PMS5003;66867;42.658;23.320;2023-09-12T05:28:00;25;24;
77699;PMS5003;66867;42.658;23.320;2023-09-12T05:29:00;28;28;
77699;PMS5003;66867;42.658;23.320;2023-09-12T05:30:00;28;28;
77699;PMS5003;66867;42.658;23.320;2023-09-12T05:35:00;30;28;
77699;PMS5003;66867;42.658;23.320;2023-09-12T05:36:00;24;24;
77699;PMS5003;66867;42.658;23.320;2023-09-12T05:37:00;26;23;
77699;PMS5003;66867;42.658;23.320;2023-09-12T05:38:00;23;23;
77699;PMS5003;66867;42.658;23.320;2023-09-12T05:39:00;23;23;
77699;PMS5003;66867;42.658;23.320;2023-09-12T05:40:00;23;21;
77699;PMS5003;66867;42.658;23.320;2023-09-12T05:41:00;22;21;
77699;PMS5003;66867;42.658;23.320;2023-09-12T05:42:00;22;20;
77699;PMS5003;66867;42.658;23.320;2023-09-12T05:43:00;23;22;
77699;PMS5003;66867;42.658;23.320;2023-09-12T05:44:00;24;24;
77699;PMS5003;66867;42.658;23.320;2023-09-12T05:45:00;19;18;
77699;PMS5003;66867;42.658;23.320;2023-09-12T05:46:00;21;21;
77699;PMS5003;66867;42.658;23.320;2023-09-12T05:47:00;22;21;
77699;PMS5003;66867;42.658;23.320;2023-09-12T05:48:00;24;24;
77699;PMS5003;66867;42.658;23.320;2023-09-12T05:49:00;19;19;
77699;PMS5003;66867;42.658;23.320;2023-09-12T05:50:00;23;22;
77699;PMS5003;66867;42.658;23.320;2023-09-12T05:51:00;22;21;
77699;PMS5003;66867;42.658;23.320;2023-09-12T05:52:00;23;22;
77699;PMS5003;66867;42.658;23.320;2023-09-12T05:53:00;19;19;
77699;PMS5003;66867;42.658;23.320;2023-09-12T05:54:00;24;24;
77699;PMS5003;66867;42.658;23.320;2023-09-12T05:55:00;23;22;
77699;PMS5003;66867;42.658;23.320;2023-09-12T05:56:00;23;22;
77699;PMS5003;66867;42.658;23.320;2023-09-12T05:57:00;21;21;
77699;PMS5003;66867;42.658;23.320;2023-09-12T05:58:00;22;22;
77699;PMS5003;66867;42.658;23.320;2023-09-12T06:43:00;21;21;
77699;PMS5003;66867;42.658;23.320;2023-09-12T06:44:00;22;21;
77699;PMS5003;66867;42.658;23.320;2023-09-12T06:45:00;22;22;
77699;PMS5003;66867;42.658;23.320;2023-09-12T06:46:00;22;21;
77699;PMS5003;66867;42.658;23.320;2023-09-12T06:47:00;21;21;
77699;PMS5003;66867;42.658;23.320;2023-09-12T06:48:00;22;20;
77699;PMS5003;66867;42.658;23.320;2023-09-12T06:49:00;21;21;
77699;PMS5003;66867;42.658;23.320;2023-09-12T06:50:00;18;18;
77699;PMS5003;66867;42.658;23.320;2023-09-12T06:51:00;24;23;
77699;PMS5003;66867;42.658;23.320;2023-09-12T06:52:00;23;23;
77699;PMS5003;66867;42.658;23.320;2023-09-12T06:53:00;19;18;
77699;PMS5003;66867;42.658;23.320;2023-09-12T06:54:41;24;22;
77699;PMS5003;66867;42.658;23.320;2023-09-12T06:55:00;23;22;
77699;PMS5003;66867;42.658;23.320;2023-09-12T06:56:00;21;21;
77699;PMS5003;66867;42.658;23.320;2023-09-12T06:57:00;21;19;
77699;PMS5003;66867;42.658;23.320;2023-09-12T06:58:00;24;22;
77699;PMS5003;66867;42.658;23.320;2023-09-12T07:00:06;22;22;
77699;PMS5003;66867;42.658;23.320;2023-09-12T07:00:06;22;22;
77699;PMS5003;66867;42.658;23.320;2023-09-12T07:04:37;17;16;
77699;PMS5003;66867;42.658;23.320;2023-09-12T07:04:38;17;16;
77699;PMS5003;66867;42.658;23.320;2023-09-12T07:04:38;17;16;
77699;PMS5003;66867;42.658;23.320;2023-09-12T07:04:38;17;16;
77699;PMS5003;66867;42.658;23.320;2023-09-12T07:05:00;17;17;
77699;PMS5003;66867;42.658;23.320;2023-09-12T07:06:00;24;24;
77699;PMS5003;66867;42.658;23.320;2023-09-12T07:07:27;24;23;
77699;PMS5003;66867;42.658;23.320;2023-09-12T07:08:00;21;21;
77699;PMS5003;66867;42.658;23.320;2023-09-12T07:10:13;18;18;
77699;PMS5003;66867;42.658;23.320;2023-09-12T07:10:13;18;18;
77699;PMS5003;66867;42.658;23.320;2023-09-12T07:11:00;17;17;
77699;PMS5003;66867;42.658;23.320;2023-09-12T08:31:00;15;14;
77699;PMS5003;66867;42.658;23.320;2023-09-12T08:32:01;15;15;
77699;PMS5003;66867;42.658;23.320;2023-09-12T08:33:00;12;12;
77699;PMS5003;66867;42.658;23.320;2023-09-12T08:35:00;13;13;
77699;PMS5003;66867;42.658;23.320;2023-09-12T08:36:00;15;15;
77699;PMS5003;66867;42.658;23.320;2023-09-12T08:37:00;17;17;
77699;PMS5003;66867;42.658;23.320;2023-09-12T08:38:00;17;17;
77699;PMS5003;66867;42.658;23.320;2023-09-12T08:39:00;14;14;
77699;PMS5003;66867;42.658;23.320;2023-09-12T08:40:01;15;15;
77699;PMS5003;66867;42.658;23.320;2023-09-12T08:41:00;15;15;
77699;PMS5003;66867;42.658;23.320;2023-09-12T08:42:01;16;14;
77699;PMS5003;66867;42.658;23.320;2023-09-12T08:43:00;15;14;
77699;PMS5003;66867;42.658;23.320;2023-09-12T08:45:01;15;15;
77699;PMS5003;66867;42.658;23.320;2023-09-12T08:46:00;17;15;
77699;PMS5003;66867;42.658;23.320;2023-09-12T08:47:00;14;13;
77699;PMS5003;66867;42.658;23.320;2023-09-12T08:48:01;12;12;
77699;PMS5003;66867;42.658;23.320;2023-09-12T08:49:00;14;14;
77699;PMS5003;66867;42.658;23.320;2023-09-12T08:50:01;12;12;
77699;PMS5003;66867;42.658;23.320;2023-09-12T08:51:00;11;11;
77699;PMS5003;66867;42.658;23.320;2023-09-12T08:52:00;12;12;
77699;PMS5003;66867;42.658;23.320;2023-09-12T08:54:01;16;14;
77699;PMS5003;66867;42.658;23.320;2023-09-12T08:55:00;16;16;
77699;PMS5003;66867;42.658;23.320;2023-09-12T08:56:00;12;12;
77699;PMS5003;66867;42.658;23.320;2023-09-12T08:57:01;14;12;
77699;PMS5003;66867;42.658;23.320;2023-09-12T08:58:02;11;11;
77699;PMS5003;66867;42.658;23.320;2023-09-12T08:59:01;15;14;
77699;PMS5003;66867;42.658;23.320;2023-09-12T09:00:01;13;13;
77699;PMS5003;66867;42.658;23.320;2023-09-12T09:01:00;12;12;
77699;PMS5003;66867;42.658;23.320;2023-09-12T09:02:01;13;13;